Time;durP1;ratioP1;P1;durP2;ratioP2;P2;SDS_P1;SDS_P2;PMS_P1;PMS_P2;Temp;Humidity;BMP_temperature;BMP_pressure;BME280_temperature;BME280_humidity;BME280_pressure;Samples;Min_cycle;Max_cycle;Signal;HPM_P1;HPM_P2
2023/03/22 00:01:30;;;;;;;13.80;9.45;;;;;;;11.20;50.96;99063.97;4253936;33;33200;-92
2023/03/22 00:03:58;;;;;;;14.05;9.65;;;;;;;11.06;51.28;99065.59;4266668;33;33802;-92
2023/03/22 00:06:26;;;;;;;15.38;9.80;;;;;;;10.96;51.64;99072.44;4263150;33;32683;-87
2023/03/22 00:08:54;;;;;;;15.90;9.75;;;;;;;11.22;50.64;99065.75;4264580;33;32205;-90
2023/03/22 00:11:24;;;;;;;12.85;9.38;;;;;;;11.17;50.65;99069.16;4260507;33;34747;-86
2023/03/22 00:13:52;;;;;;;14.85;10.35;;;;;;;11.15;50.83;99060.50;4260319;33;33568;-92
2023/03/22 00:16:20;;;;;;;15.40;9.90;;;;;;;11.12;51.05;99059.59;4259490;33;33228;-87
2023/03/22 00:18:48;;;;;;;14.60;10.32;;;;;;;11.08;51.14;99058.69;4261969;33;34770;-91
2023/03/22 00:21:16;;;;;;;15.65;10.57;;;;;;;11.06;51.02;99055.22;4263059;33;33316;-86
2023/03/22 00:23:44;;;;;;;13.30;9.52;;;;;;;11.12;50.89;99050.06;4260770;33;33828;-91
2023/03/22 00:26:12;;;;;;;14.75;10.13;;;;;;;11.01;51.29;99056.91;4266419;33;33868;-94
2023/03/22 00:28:41;;;;;;;13.85;10.27;;;;;;;11.02;51.73;99048.25;4275624;33;34308;-88
2023/03/22 00:31:09;;;;;;;18.92;11.40;;;;;;;10.88;52.16;99049.88;4264220;33;34187;-92
2023/03/22 00:33:37;;;;;;;16.10;11.20;;;;;;;10.83;52.25;99057.59;4249427;33;33027;-93
2023/03/22 00:36:08;;;;;;;13.82;11.00;;;;;;;10.85;52.52;99055.03;4265384;33;33271;-89
2023/03/22 00:38:36;;;;;;;16.02;11.27;;;;;;;10.83;52.70;99042.03;4275182;33;34244;-92
2023/03/22 00:41:15;;;;;;;16.67;11.50;;;;;;;10.81;52.90;99053.25;4266139;33;34572;-93
2023/03/22 00:43:44;;;;;;;17.17;12.20;;;;;;;10.80;53.03;99056.72;4248882;33;34843;-87
2023/03/22 00:46:13;;;;;;;15.68;11.20;;;;;;;10.75;53.23;99051.44;4265573;33;32813;-93
2023/03/22 00:48:41;;;;;;;15.85;11.18;;;;;;;10.84;53.11;99043.78;4263344;33;34624;-93
2023/03/22 00:51:11;;;;;;;17.25;13.25;;;;;;;10.96;52.82;99043.88;4272634;33;32911;-91
2023/03/22 00:53:40;;;;;;;17.37;12.20;;;;;;;11.01;52.91;99054.31;4260258;33;34517;-92
2023/03/22 00:56:14;;;;;;;16.37;12.10;;;;;;;10.94;52.89;99049.91;4278703;33;34292;-93
2023/03/22 00:58:47;;;;;;;16.12;12.27;;;;;;;10.74;53.22;99059.22;4264273;33;33394;-94
2023/03/22 01:01:16;;;;;;;17.33;12.52;;;;;;;10.79;53.28;99055.81;4266548;33;34969;-92
2023/03/22 01:03:44;;;;;;;19.17;13.18;;;;;;;10.57;54.11;99059.94;4248892;33;32236;-87
2023/03/22 01:06:13;;;;;;;16.37;12.05;;;;;;;10.61;54.01;99060.84;4278831;33;33079;-88
2023/03/22 01:08:40;;;;;;;17.67;12.55;;;;;;;10.72;53.64;99054.03;4277703;33;33870;-89
2023/03/22 01:11:09;;;;;;;18.60;13.43;;;;;;;10.52;54.06;99046.03;4260562;33;34747;-88
2023/03/22 01:13:37;;;;;;;17.30;13.40;;;;;;;10.52;54.42;99051.22;4260411;33;33124;-89
2023/03/22 01:16:06;;;;;;;19.85;13.60;;;;;;;10.60;54.43;99039.19;4273494;33;33961;-93
2023/03/22 01:18:34;;;;;;;18.23;13.98;;;;;;;10.44;55.45;99042.47;4260355;33;34052;-91
2023/03/22 01:21:03;;;;;;;19.27;13.80;;;;;;;10.23;56.45;99046.53;4260673;33;34091;-94
2023/03/22 01:23:31;;;;;;;20.83;14.43;;;;;;;10.12;56.80;99042.94;4260992;33;33738;-90
2023/03/22 01:25:59;;;;;;;19.15;14.48;;;;;;;10.14;57.00;99045.56;4275053;33;33229;-92
2023/03/22 01:28:27;;;;;;;20.58;14.02;;;;;;;10.14;57.31;99043.81;4248801;33;32933;-93
2023/03/22 01:31:00;;;;;;;16.73;13.82;;;;;;;10.10;57.54;99046.38;4260390;33;34208;-92
2023/03/22 01:33:29;;;;;;;18.30;13.65;;;;;;;10.07;57.55;99046.31;4260509;33;33327;-92
2023/03/22 01:35:57;;;;;;;18.50;12.95;;;;;;;9.90;58.19;99039.22;4262546;33;33450;-92
2023/03/22 01:38:25;;;;;;;18.87;13.35;;;;;;;10.22;56.93;99037.00;4262358;33;33874;-87
2023/03/22 01:40:53;;;;;;;16.95;12.50;;;;;;;10.16;57.33;99036.09;4274710;33;33095;-90
2023/03/22 01:43:21;;;;;;;17.90;13.00;;;;;;;10.27;57.07;99038.84;4250144;33;32957;-91
2023/03/22 01:45:50;;;;;;;17.73;13.25;;;;;;;10.50;56.11;99037.38;4273441;33;33698;-87
2023/03/22 01:48:19;;;;;;;16.27;12.18;;;;;;;10.57;55.82;99038.28;4260129;33;34384;-91
2023/03/22 01:50:54;;;;;;;15.05;12.13;;;;;;;10.63;55.38;99036.66;4273188;33;34153;-93
2023/03/22 01:53:26;;;;;;;15.80;11.50;;;;;;;10.55;55.44;99035.69;4261056;33;33993;-89
2023/03/22 01:55:54;;;;;;;17.40;12.80;;;;;;;10.50;55.58;99041.69;4253555;33;33468;-89
2023/03/22 01:58:22;;;;;;;17.10;12.93;;;;;;;10.48;55.81;99039.94;4261194;33;34570;-92
2023/03/22 02:00:51;;;;;;;16.73;11.55;;;;;;;10.47;55.82;99027.84;4260755;33;33907;-91
2023/03/22 02:03:37;;;;;;;16.48;12.02;;;;;;;10.45;55.79;99039.94;4249388;33;33943;-94
2023/03/22 02:06:05;;;;;;;15.77;11.60;;;;;;;10.57;55.49;99039.19;4263368;33;33472;-90
2023/03/22 02:08:33;;;;;;;18.27;12.35;;;;;;;10.56;55.27;99046.94;4261503;33;33917;-92
2023/03/22 02:11:02;;;;;;;16.52;11.50;;;;;;;10.52;55.19;99043.44;4267364;33;34525;-94
2023/03/22 02:14:02;;;;;;;15.75;11.93;;;;;;;10.50;55.25;99046.88;4262624;33;33683;-93
2023/03/22 02:16:49;;;;;;;15.10;11.63;;;;;;;10.36;55.95;99044.12;4253932;33;31754;-92
2023/03/22 02:19:19;;;;;;;14.10;11.43;;;;;;;10.37;55.93;99041.53;4273858;33;34579;-89
2023/03/22 02:22:16;;;;;;;15.32;10.98;;;;;;;10.38;56.02;99052.78;4282533;33;34613;-89
2023/03/22 02:25:21;;;;;;;15.73;11.60;;;;;;;10.35;56.21;99058.81;4273912;33;34183;-90
2023/03/22 02:28:22;;;;;;;16.00;11.02;;;;;;;10.43;55.83;99051.13;4274146;33;33602;-93
2023/03/22 02:31:08;;;;;;;14.90;10.40;;;;;;;10.39;55.83;99062.31;4268469;33;34553;-89
2023/03/22 02:33:54;;;;;;;;;;;;;;;10.41;55.50;99058.00;4258683;33;34501;-92
2023/03/22 02:36:46;;;;;;;15.23;11.65;;;;;;;10.51;55.21;99053.78;4266140;33;33557;-88
2023/03/22 02:39:15;;;;;;;17.33;11.98;;;;;;;10.27;55.84;99051.81;4272728;33;34155;-89
2023/03/22 02:41:51;;;;;;;14.55;10.65;;;;;;;10.17;56.27;99055.97;4243918;33;32598;-93
2023/03/22 02:44:34;;;;;;;17.40;12.63;;;;;;;10.28;56.02;99058.72;4274814;33;34282;-88
2023/03/22 02:47:33;;;;;;;16.20;11.80;;;;;;;10.07;57.20;99061.84;4282121;33;33986;-88
2023/03/22 02:50:09;;;;;;;15.10;11.63;;;;;;;9.98;57.50;99053.12;4284059;33;34125;-87
2023/03/22 02:52:38;;;;;;;16.92;12.05;;;;;;;10.12;57.40;99061.09;4264328;33;32966;-87
2023/03/22 02:55:32;;;;;;;15.60;11.52;;;;;;;10.16;57.19;99057.69;4274228;33;34488;-88
2023/03/22 02:58:06;;;;;;;16.67;12.15;;;;;;;10.10;57.74;99049.81;4272064;33;34059;-87
2023/03/22 03:00:34;;;;;;;17.98;12.02;;;;;;;10.06;58.12;99050.63;4275676;33;33361;-89
2023/03/22 03:03:10;;;;;;;17.52;11.95;;;;;;;10.14;58.02;99041.22;4251006;33;32506;-93
2023/03/22 03:05:42;;;;;;;16.87;11.80;;;;;;;10.03;58.50;99044.53;4263950;33;34350;-92
2023/03/22 03:08:12;;;;;;;16.80;12.07;;;;;;;10.02;59.05;99048.84;4265473;33;33577;-91
2023/03/22 03:10:45;;;;;;;16.50;11.73;;;;;;;9.90;60.85;99046.97;4261999;33;34197;-87
2023/03/22 03:13:15;;;;;;;16.25;12.40;;;;;;;9.96;61.01;99053.94;4262687;33;34743;-90
2023/03/22 03:15:47;;;;;;;14.70;11.20;;;;;;;10.09;60.44;99058.44;4252628;33;34268;-93
2023/03/22 03:18:18;;;;;;;15.05;10.77;;;;;;;10.37;59.88;99051.91;4263275;33;34870;-93
2023/03/22 03:21:01;;;;;;;15.40;10.27;;;;;;;10.42;59.56;99051.97;4262443;33;33302;-87
2023/03/22 03:23:41;;;;;;;20.58;11.70;;;;;;;10.42;60.08;99044.22;4271999;33;33290;-92
2023/03/22 03:26:27;;;;;;;15.57;11.32;;;;;;;10.40;59.89;99058.84;4273048;33;33205;-93
2023/03/22 03:28:59;;;;;;;15.73;11.88;;;;;;;10.39;59.90;99063.16;4262858;33;33481;-88
2023/03/22 03:31:27;;;;;;;15.73;11.35;;;;;;;10.40;59.78;99071.81;4266878;33;33390;-87
2023/03/22 03:33:55;;;;;;;17.75;12.43;;;;;;;10.36;59.93;99077.81;4283463;33;33501;-93
2023/03/22 03:36:24;;;;;;;16.40;11.48;;;;;;;10.38;59.92;99081.28;4288711;33;34144;-87
2023/03/22 03:38:53;;;;;;;14.65;10.45;;;;;;;10.44;59.62;99077.03;4263744;33;32936;-93
2023/03/22 03:41:28;;;;;;;17.42;10.80;;;;;;;10.80;58.27;99075.72;4263951;33;32046;-88
2023/03/22 03:43:57;;;;;;;14.52;10.30;;;;;;;10.74;58.47;99077.38;4261391;33;34256;-88
2023/03/22 03:46:27;;;;;;;15.38;11.68;;;;;;;10.80;58.09;99073.13;4261531;33;33993;-86
2023/03/22 03:48:56;;;;;;;14.20;10.20;;;;;;;10.91;57.77;99076.72;4261806;33;34771;-94
2023/03/22 03:51:25;;;;;;;14.85;10.82;;;;;;;10.98;57.37;99080.22;4248746;33;32725;-94
2023/03/22 03:53:54;;;;;;;15.38;10.48;;;;;;;10.90;58.02;99084.44;4258017;33;33986;-95
2023/03/22 03:56:21;;;;;;;16.23;10.80;;;;;;;10.80;58.42;99078.31;4250653;33;34861;-87
2023/03/22 03:58:49;;;;;;;14.32;10.48;;;;;;;11.03;57.91;99064.72;4278096;33;33865;-92
2023/03/22 04:01:19;;;;;;;14.50;10.25;;;;;;;10.60;59.05;99075.50;4282757;33;33140;-90
2023/03/22 04:03:49;;;;;;;16.42;11.32;;;;;;;10.93;58.04;99076.72;4253591;33;30873;-95
2023/03/22 04:06:21;;;;;;;15.75;10.85;;;;;;;10.77;58.41;99080.00;4257657;33;33838;-92
2023/03/22 04:08:52;;;;;;;17.00;11.25;;;;;;;10.67;58.82;99076.44;4250831;33;33559;-92
2023/03/22 04:11:20;;;;;;;17.52;11.15;;;;;;;10.72;58.58;99079.97;4275002;33;34240;-89
2023/03/22 04:13:48;;;;;;;15.75;11.25;;;;;;;10.52;59.18;99079.72;4280004;33;33886;-87
2023/03/22 04:16:17;;;;;;;15.77;10.80;;;;;;;10.73;58.67;99086.87;4260726;33;34164;-86
2023/03/22 04:18:45;;;;;;;16.15;10.57;;;;;;;10.26;60.26;99081.13;4249313;33;34102;-92
2023/03/22 04:21:15;;;;;;;14.43;10.57;;;;;;;10.67;58.70;99082.50;4261664;33;33583;-87
2023/03/22 04:23:45;;;;;;;16.67;11.45;;;;;;;10.70;58.47;99085.13;4280550;33;33767;-88
2023/03/22 04:26:13;;;;;;;15.73;11.20;;;;;;;10.44;59.24;99079.63;4275679;33;34069;-95
2023/03/22 04:28:42;;;;;;;14.00;10.30;;;;;;;10.54;58.90;99078.03;4249517;33;33381;-90
2023/03/22 04:31:11;;;;;;;15.65;10.65;;;;;;;10.68;58.15;99073.88;4268371;33;33587;-90
2023/03/22 04:33:39;;;;;;;15.35;11.00;;;;;;;10.54;58.40;99087.53;4274256;33;35150;-92
2023/03/22 04:36:16;;;;;;;14.40;9.65;;;;;;;10.56;58.31;99088.41;4260437;33;34354;-87
2023/03/22 04:38:45;;;;;;;15.18;11.15;;;;;;;10.55;58.23;99090.12;4271830;33;33494;-93
2023/03/22 04:41:14;;;;;;;16.08;10.88;;;;;;;10.49;58.47;99082.28;4246143;33;33924;-86
2023/03/22 04:43:45;;;;;;;14.40;10.93;;;;;;;10.74;57.93;99080.84;4252501;33;33083;-86
2023/03/22 04:46:21;;;;;;;16.92;11.07;;;;;;;10.81;57.08;99086.97;4273727;33;32713;-87
2023/03/22 04:48:49;;;;;;;16.08;10.98;;;;;;;10.60;57.27;99085.87;4260147;33;33859;-86
2023/03/22 04:51:17;;;;;;;16.10;11.25;;;;;;;10.58;57.33;99092.78;4235030;33;32057;-90
2023/03/22 04:53:47;;;;;;;16.65;10.77;;;;;;;10.71;56.79;99081.66;4260823;33;34326;-87
2023/03/22 04:56:15;;;;;;;15.93;11.48;;;;;;;10.80;56.53;99086.09;4277543;33;34220;-88
2023/03/22 04:58:44;;;;;;;14.38;10.10;;;;;;;10.68;56.64;99085.94;4273881;33;33846;-89
2023/03/22 05:01:14;;;;;;;14.87;10.35;;;;;;;10.67;56.91;99090.25;4261793;33;33574;-87
2023/03/22 05:03:47;;;;;;;16.80;11.12;;;;;;;10.76;56.49;99091.22;4248019;33;34177;-87
2023/03/22 05:06:16;;;;;;;16.17;11.27;;;;;;;10.77;56.28;99093.84;4262791;33;33799;-93
2023/03/22 05:08:44;;;;;;;17.60;12.02;;;;;;;10.75;56.45;99092.94;4274726;33;33436;-92
2023/03/22 05:11:20;;;;;;;16.12;11.18;;;;;;;10.62;57.28;99098.84;4267512;33;33487;-90
2023/03/22 05:13:50;;;;;;;15.65;10.50;;;;;;;10.81;57.52;99097.34;4282309;33;33744;-88
2023/03/22 05:16:17;;;;;;;17.00;11.75;;;;;;;11.01;57.58;99088.03;4273995;33;33725;-86
2023/03/22 05:18:48;;;;;;;16.50;11.00;;;;;;;11.40;56.43;99091.81;4275623;33;33841;-90
2023/03/22 05:21:20;;;;;;;16.90;10.90;;;;;;;11.43;55.59;99091.84;4254071;33;32075;-87
2023/03/22 05:23:49;;;;;;;15.60;10.98;;;;;;;11.30;55.95;99092.63;4267090;33;32624;-94
2023/03/22 05:26:23;;;;;;;16.42;11.27;;;;;;;11.22;56.52;99091.69;4262344;33;34220;-91
2023/03/22 05:29:06;;;;;;;15.27;10.82;;;;;;;11.20;56.86;99102.03;4280323;33;34882;-90
2023/03/22 05:31:36;;;;;;;17.35;11.52;;;;;;;11.53;56.37;99098.88;4277878;33;32478;-91
2023/03/22 05:34:04;;;;;;;16.17;11.02;;;;;;;11.28;57.89;99107.28;4271882;33;33838;-88
2023/03/22 05:36:35;;;;;;;15.93;10.57;;;;;;;11.49;57.82;99119.59;4279039;33;35107;-85
2023/03/22 05:39:06;;;;;;;19.20;12.60;;;;;;;11.35;58.53;99109.97;4247952;33;32894;-85
2023/03/22 05:41:33;;;;;;;18.83;12.00;;;;;;;10.53;61.57;99114.28;4267843;33;34521;-89
2023/03/22 05:44:04;;;;;;;18.48;11.75;;;;;;;10.33;61.15;99114.03;4274550;33;34028;-83
2023/03/22 05:46:31;;;;;;;18.70;12.65;;;;;;;11.12;58.67;99112.34;4276844;33;32947;-85
2023/03/22 05:49:03;;;;;;;21.15;13.40;;;;;;;11.24;58.61;99103.81;4274873;33;32838;-86
2023/03/22 05:51:31;;;;;;;17.15;12.95;;;;;;;11.53;57.88;99109.25;4272426;33;33733;-85
2023/03/22 05:53:58;;;;;;;19.30;12.68;;;;;;;11.67;57.92;99117.16;4262366;33;33790;-88
2023/03/22 05:56:26;;;;;;;20.42;13.52;;;;;;;11.57;58.40;99113.59;4261776;33;33931;-90
2023/03/22 05:58:57;;;;;;;18.27;12.05;;;;;;;11.68;58.17;99116.28;4263257;33;34132;-88
2023/03/22 06:01:24;;;;;;;15.90;10.77;;;;;;;11.64;58.61;99122.31;4271302;33;32448;-91
2023/03/22 06:03:54;;;;;;;18.00;12.32;;;;;;;11.91;57.96;99114.75;4256018;33;33906;-90
2023/03/22 06:06:23;;;;;;;17.75;11.48;;;;;;;11.97;56.95;99110.44;4277511;33;34249;-91
2023/03/22 06:08:51;;;;;;;18.40;12.65;;;;;;;11.95;56.93;99130.38;4256649;33;33067;-91
2023/03/22 06:11:19;;;;;;;18.02;11.20;;;;;;;12.31;55.97;99130.59;4272529;33;33384;-86
2023/03/22 06:13:47;;;;;;;16.62;10.95;;;;;;;12.24;55.64;99127.97;4276603;33;33777;-92
2023/03/22 06:16:16;;;;;;;23.67;13.60;;;;;;;12.30;55.46;99125.37;4283027;33;34550;-90
2023/03/22 06:18:44;;;;;;;17.52;12.48;;;;;;;11.82;57.16;99124.16;4288954;33;34406;-91
2023/03/22 06:21:11;;;;;;;18.80;13.02;;;;;;;12.27;56.06;99125.34;4287860;33;33373;-87
2023/03/22 06:23:40;;;;;;;17.15;11.12;;;;;;;12.45;55.88;99135.84;4253395;33;33019;-86
2023/03/22 06:26:10;;;;;;;20.85;12.57;;;;;;;12.30;54.86;99128.84;4259557;33;32671;-92
2023/03/22 06:28:38;;;;;;;18.37;11.50;;;;;;;12.48;55.58;99132.41;4289130;33;32532;-91
2023/03/22 06:31:08;;;;;;;15.70;10.82;;;;;;;12.60;54.70;99137.66;4264166;33;32790;-92
2023/03/22 06:33:37;;;;;;;15.95;10.65;;;;;;;12.41;54.80;99144.50;4270537;33;33955;-88
2023/03/22 06:36:05;;;;;;;16.70;12.68;;;;;;;12.56;54.54;99139.34;4264139;33;33527;-86
2023/03/22 06:38:33;;;;;;;21.30;13.65;;;;;;;12.49;54.14;99142.78;4277735;33;33834;-94
2023/03/22 06:41:02;;;;;;;15.82;10.63;;;;;;;12.40;54.92;99142.75;4253251;33;31826;-91
2023/03/22 06:43:29;;;;;;;18.45;11.65;;;;;;;12.25;54.88;99135.75;4294552;33;33069;-96
2023/03/22 06:45:58;;;;;;;15.70;10.30;;;;;;;12.72;53.44;99136.81;4293802;33;34073;-93
2023/03/22 06:48:29;;;;;;;14.98;10.40;;;;;;;12.56;53.41;99149.75;4284959;33;33544;-96
2023/03/22 06:50:56;;;;;;;15.32;9.65;;;;;;;12.91;52.28;99138.59;4287126;33;33178;-93
2023/03/22 06:53:24;;;;;;;15.43;10.35;;;;;;;12.90;52.52;99142.94;4275629;33;33541;-86
2023/03/22 06:55:52;;;;;;;18.67;10.35;;;;;;;12.69;53.42;99144.59;4263978;33;34114;-87
2023/03/22 06:58:22;;;;;;;13.48;10.02;;;;;;;12.40;53.88;99138.44;4288847;33;33663;-90
2023/03/22 07:00:49;;;;;;;15.00;10.15;;;;;;;12.19;54.11;99138.31;4275655;33;33757;-91
2023/03/22 07:03:17;;;;;;;13.95;9.52;;;;;;;12.39;54.39;99138.44;4275715;33;33466;-93
2023/03/22 07:05:45;;;;;;;15.35;9.82;;;;;;;12.25;54.31;99155.69;4275548;33;34056;-93
2023/03/22 07:08:13;;;;;;;12.95;9.00;;;;;;;12.63;53.43;99164.53;4288632;33;33478;-93
2023/03/22 07:10:42;;;;;;;14.10;9.30;;;;;;;12.69;52.65;99158.50;4288745;33;33467;-87
2023/03/22 07:13:10;;;;;;;13.95;9.20;;;;;;;12.80;52.87;99163.72;4288568;33;33595;-90
2023/03/22 07:15:37;;;;;;;14.50;9.30;;;;;;;12.57;53.09;99159.28;4275703;33;34828;-94
2023/03/22 07:18:07;;;;;;;14.87;10.20;;;;;;;12.63;53.21;99167.12;4264297;33;33279;-88
2023/03/22 07:20:37;;;;;;;14.77;10.05;;;;;;;12.56;53.20;99162.75;4275352;33;32857;-87
2023/03/22 07:23:07;;;;;;;14.65;9.20;;;;;;;12.53;53.15;99162.75;4288543;33;34590;-87
2023/03/22 07:25:36;;;;;;;14.43;10.00;;;;;;;12.76;52.23;99164.56;4264421;33;34115;-86
2023/03/22 07:28:05;;;;;;;15.13;10.15;;;;;;;12.58;52.83;99165.41;4275245;33;33319;-88
2023/03/22 07:30:36;;;;;;;13.13;9.68;;;;;;;12.40;53.18;99173.97;4288661;33;34387;-88
2023/03/22 07:33:09;;;;;;;14.93;9.55;;;;;;;12.72;52.23;99170.63;4272634;33;34105;-89
2023/03/22 07:35:38;;;;;;;13.00;9.20;;;;;;;12.56;52.19;99167.09;4264715;33;34047;-91
2023/03/22 07:38:06;;;;;;;15.65;10.77;;;;;;;12.91;51.51;99159.44;4272515;33;33240;-93
2023/03/22 07:40:33;;;;;;;13.23;9.30;;;;;;;12.43;52.72;99165.31;4274192;33;33613;-93
2023/03/22 07:43:01;;;;;;;16.40;10.88;;;;;;;12.45;53.00;99172.25;4249941;33;33920;-87
2023/03/22 07:45:34;;;;;;;16.30;10.45;;;;;;;12.71;52.70;99177.56;4278280;33;168673;-91
2023/03/22 07:48:05;;;;;;;16.05;10.55;;;;;;;12.77;52.33;99164.59;4275502;33;33195;-92
2023/03/22 07:50:33;;;;;;;18.98;10.10;;;;;;;13.14;51.98;99165.59;4264097;33;32769;-93
2023/03/22 07:53:02;;;;;;;16.17;10.82;;;;;;;13.37;51.00;99164.78;4275699;33;33472;-92
2023/03/22 07:55:30;;;;;;;15.25;9.93;;;;;;;13.45;50.85;99160.47;4287225;33;34170;-90
2023/03/22 07:57:58;;;;;;;17.75;10.95;;;;;;;13.17;51.39;99169.91;4274089;33;33910;-92
2023/03/22 08:00:26;;;;;;;18.87;11.10;;;;;;;13.61;50.01;99164.81;4275990;33;34209;-93
2023/03/22 08:02:55;;;;;;;19.10;11.32;;;;;;;13.62;50.46;99158.72;4288745;33;33811;-93
2023/03/22 08:05:24;;;;;;;16.98;10.52;;;;;;;13.54;51.53;99157.84;4288970;33;34045;-93
2023/03/22 08:07:53;;;;;;;20.37;10.73;;;;;;;13.80;49.73;99151.78;4268110;33;32902;-93
2023/03/22 08:10:21;;;;;;;18.10;11.35;;;;;;;13.79;50.10;99150.06;4285731;33;34470;-93
2023/03/22 08:12:48;;;;;;;16.52;10.45;;;;;;;13.48;50.91;99159.56;4275460;33;34630;-95
2023/03/22 08:15:16;;;;;;;16.77;10.68;;;;;;;13.76;49.70;99157.88;4275265;33;34136;-86
2023/03/22 08:17:45;;;;;;;16.50;10.57;;;;;;;13.97;49.54;99154.37;4275096;33;34784;-86
2023/03/22 08:20:13;;;;;;;17.08;10.98;;;;;;;14.04;49.31;99162.19;4288366;33;33407;-86
2023/03/22 08:22:42;;;;;;;17.98;10.70;;;;;;;14.08;49.31;99163.03;4275548;33;34554;-93
2023/03/22 08:25:11;;;;;;;16.37;10.85;;;;;;;14.24;49.12;99161.28;4288592;33;33513;-87
2023/03/22 08:27:38;;;;;;;17.08;10.68;;;;;;;13.21;50.69;99163.84;4288463;33;33849;-94
2023/03/22 08:30:07;;;;;;;15.77;11.05;;;;;;;13.33;51.22;99168.22;4275421;33;33091;-93
2023/03/22 08:32:35;;;;;;;19.73;10.70;;;;;;;13.75;50.00;99163.94;4275020;33;33838;-95
2023/03/22 08:35:06;;;;;;;16.25;10.27;;;;;;;13.94;49.56;99164.78;4288263;33;34801;-91
2023/03/22 08:37:34;;;;;;;16.70;10.38;;;;;;;14.46;48.10;99170.78;4262689;33;32741;-86
2023/03/22 08:40:06;;;;;;;18.73;10.75;;;;;;;14.55;46.59;99168.19;4274352;33;34200;-86
2023/03/22 08:42:35;;;;;;;16.35;9.52;;;;;;;14.71;46.21;99166.38;4287986;33;33532;-86
2023/03/22 08:45:03;;;;;;;15.70;9.95;;;;;;;14.45;46.87;99173.41;4274325;33;33307;-86
2023/03/22 08:47:35;;;;;;;16.05;10.32;;;;;;;14.60;46.98;99181.22;4274692;33;32879;-86
2023/03/22 08:50:04;;;;;;;19.42;10.48;;;;;;;14.56;47.22;99177.75;4287545;33;33302;-91
2023/03/22 08:52:32;;;;;;;15.35;10.00;;;;;;;14.50;46.81;99176.88;4263085;33;33003;-90
2023/03/22 08:55:00;;;;;;;18.75;11.20;;;;;;;14.01;47.88;99176.94;4263021;33;32742;-94
2023/03/22 08:57:31;;;;;;;18.15;10.50;;;;;;;14.39;47.11;99176.88;4275279;33;33065;-87
2023/03/22 08:59:59;;;;;;;17.67;11.50;;;;;;;13.96;49.23;99173.50;4275211;33;33365;-86
2023/03/22 09:02:29;;;;;;;20.02;11.38;;;;;;;14.10;47.98;99159.56;4263318;33;33339;-85
2023/03/22 09:04:57;;;;;;;21.05;11.25;;;;;;;14.12;48.08;99165.63;4287856;33;33444;-86
2023/03/22 09:07:26;;;;;;;16.77;10.38;;;;;;;14.30;48.02;99162.13;4263061;33;33281;-86
2023/03/22 09:09:54;;;;;;;18.62;11.52;;;;;;;14.61;47.44;99167.28;4274799;33;33737;-86
2023/03/22 09:12:25;;;;;;;14.85;10.73;;;;;;;13.64;49.64;99174.38;4275457;33;34442;-86
2023/03/22 09:14:52;;;;;;;19.80;11.38;;;;;;;13.84;49.73;99177.84;4274531;33;33669;-86
2023/03/22 09:17:24;;;;;;;19.25;12.52;;;;;;;14.32;48.31;99177.78;4263737;33;33426;-85
2023/03/22 09:19:51;;;;;;;19.58;11.73;;;;;;;14.34;48.08;99176.03;4274662;33;33514;-86
2023/03/22 09:22:37;;;;;;;23.92;13.62;;;;;;;14.34;48.59;99173.41;4266793;33;33642;-86
2023/03/22 09:25:06;;;;;;;22.15;12.32;;;;;;;14.33;48.46;99171.69;4274321;33;33994;-86
2023/03/22 09:27:33;;;;;;;21.95;11.90;;;;;;;14.53;48.08;99172.53;4274862;33;33477;-86
2023/03/22 09:30:01;;;;;;;20.40;13.00;;;;;;;14.68;47.51;99162.91;4274000;33;32074;-86
2023/03/22 09:32:29;;;;;;;16.12;10.05;;;;;;;14.77;47.20;99171.59;4287273;33;33944;-86
2023/03/22 09:34:57;;;;;;;26.27;12.07;;;;;;;14.64;48.39;99169.87;4273878;33;34120;-86
2023/03/22 09:37:29;;;;;;;18.77;11.73;;;;;;;14.69;47.74;99170.72;4287405;33;34392;-91
2023/03/22 09:39:57;;;;;;;19.15;11.85;;;;;;;14.61;47.32;99164.69;4262678;33;33276;-86
2023/03/22 09:42:45;;;;;;;21.08;12.37;;;;;;;14.83;46.58;99171.56;4274352;33;34358;-86
2023/03/22 09:45:20;;;;;;;20.45;12.07;;;;;;;14.56;47.46;99169.91;4262712;33;34570;-85
2023/03/22 09:47:50;;;;;;;21.00;12.95;;;;;;;14.73;47.52;99166.38;4262759;33;33619;-85
2023/03/22 09:50:21;;;;;;;20.48;11.98;;;;;;;14.70;47.04;99156.84;4262087;33;32644;-85
2023/03/22 09:52:50;;;;;;;18.30;11.27;;;;;;;14.89;47.02;99160.22;4262547;33;33975;-87
2023/03/22 09:55:40;;;;;;;21.25;12.52;;;;;;;14.71;47.74;99160.31;4262254;33;33851;-85
2023/03/22 09:58:28;;;;;;;21.30;12.80;;;;;;;14.70;47.97;99167.28;4274201;33;34008;-87
2023/03/22 10:01:00;;;;;;;19.75;12.40;;;;;;;14.95;47.21;99165.41;4274163;33;34180;-86
2023/03/22 10:04:03;;;;;;;30.95;13.50;;;;;;;15.05;47.26;99166.25;4250626;33;33409;-86
2023/03/22 10:06:31;;;;;;;29.67;12.63;;;;;;;14.59;47.80;99171.66;4286953;33;34113;-86
2023/03/22 10:09:08;;;;;;;19.00;11.70;;;;;;;14.83;47.48;99165.47;4273568;33;33879;-86
2023/03/22 10:11:36;;;;;;;17.60;12.88;;;;;;;15.20;45.96;99160.06;4262034;33;32447;-86
2023/03/22 10:14:22;;;;;;;20.95;12.00;;;;;;;15.10;46.41;99154.00;4273785;33;34671;-86
2023/03/22 10:16:51;;;;;;;19.23;12.85;;;;;;;15.19;45.92;99169.66;4273854;33;34481;-86
2023/03/22 10:19:40;;;;;;;19.65;12.13;;;;;;;15.05;46.18;99161.88;4273975;33;33628;-93
2023/03/22 10:22:12;;;;;;;21.00;12.52;;;;;;;15.08;46.41;99161.00;4286821;33;33373;-86
2023/03/22 10:24:40;;;;;;;17.98;11.98;;;;;;;15.03;46.65;99168.84;4273847;33;33372;-86
2023/03/22 10:27:16;;;;;;;20.70;12.55;;;;;;;14.77;47.09;99158.53;4273737;33;33771;-86
2023/03/22 10:29:54;;;;;;;23.02;12.85;;;;;;;14.88;47.75;99160.22;4274010;33;34507;-94
2023/03/22 10:32:29;;;;;;;21.10;12.93;;;;;;;14.91;47.26;99158.47;4273469;33;34260;-86
2023/03/22 10:34:56;;;;;;;23.73;11.50;;;;;;;14.80;47.57;99155.03;4262021;33;33394;-90
2023/03/22 10:37:30;;;;;;;19.42;12.07;;;;;;;14.62;48.04;99149.88;4286275;33;34148;-86
2023/03/22 10:40:00;;;;;;;23.20;12.25;;;;;;;14.53;48.10;99150.78;4286674;33;33432;-86
2023/03/22 10:42:29;;;;;;;21.83;12.52;;;;;;;14.30;49.21;99148.22;4261840;33;34035;-87
2023/03/22 10:45:04;;;;;;;21.65;13.38;;;;;;;14.91;47.62;99155.84;4272994;33;34651;-86
2023/03/22 10:47:40;;;;;;;20.88;13.40;;;;;;;14.73;47.90;99153.31;4261368;33;34187;-86
2023/03/22 10:50:20;;;;;;;19.25;13.68;;;;;;;14.72;48.35;99154.22;4261660;33;33413;-86
2023/03/22 10:53:00;;;;;;;20.75;13.68;;;;;;;14.91;47.94;99153.25;4273522;33;33554;-92
2023/03/22 10:55:28;;;;;;;21.12;14.35;;;;;;;15.01;47.74;99154.06;4261441;33;32784;-86
2023/03/22 10:58:11;;;;;;;21.30;13.62;;;;;;;14.94;48.14;99150.62;4273280;33;33724;-86
2023/03/22 11:00:47;;;;;;;21.33;13.40;;;;;;;15.06;48.09;99147.94;4286283;33;33382;-86
2023/03/22 11:03:34;;;;;;;21.60;13.95;;;;;;;14.99;47.93;99141.00;4274837;33;33440;-86
2023/03/22 11:06:09;;;;;;;20.98;13.30;;;;;;;15.17;47.66;99141.78;4275278;33;32983;-86
2023/03/22 11:08:38;;;;;;;22.62;14.15;;;;;;;15.12;48.09;99147.06;4288582;33;34186;-86
2023/03/22 11:11:18;;;;;;;23.42;14.40;;;;;;;15.02;48.89;99141.00;4288367;33;33937;-86
2023/03/22 11:13:52;;;;;;;24.77;13.98;;;;;;;15.01;48.60;99134.06;4275250;33;34345;-86
2023/03/22 11:16:21;;;;;;;24.20;14.40;;;;;;;15.25;47.96;99126.94;4275150;33;33798;-86
2023/03/22 11:18:49;;;;;;;24.98;16.02;;;;;;;15.32;47.97;99126.03;4288463;33;34839;-86
2023/03/22 11:21:17;;;;;;;24.33;15.02;;;;;;;15.33;47.95;99123.38;4275421;33;34646;-86
2023/03/22 11:23:53;;;;;;;21.42;13.52;;;;;;;15.46;47.34;99116.34;4275077;33;34172;-88
2023/03/22 11:26:30;;;;;;;20.83;13.43;;;;;;;15.09;48.31;99115.72;4263572;33;33535;-86
2023/03/22 11:29:11;;;;;;;20.12;13.48;;;;;;;15.44;47.62;99110.25;4275219;33;34897;-87
2023/03/22 11:31:59;;;;;;;20.98;13.27;;;;;;;15.53;47.85;99102.34;4288290;33;33966;-88
2023/03/22 11:34:29;;;;;;;19.65;13.35;;;;;;;15.92;47.62;99099.44;4274904;33;33457;-86
2023/03/22 11:37:00;;;;;;;23.33;13.65;;;;;;;16.14;46.64;99094.81;4275373;33;33778;-87
2023/03/22 11:39:28;;;;;;;22.85;14.82;;;;;;;15.66;48.28;99092.69;4275207;33;34741;-86